メインページ
METAR-TAF:

METAR-TAF

空港 :

サンフアン, プエルトリコ, アメリカ合衆国

ルイス・ムニョス・マリン国際空港

緯度: 18-27N, 経度: 066-00W, 海抜: 3m

現時点の気象観測

当レポートは45分前の18:56(UTC)に作成
南/南東の風 8kt、最大14ktの突風を伴う
気温 27°C
湿度 74%
気圧 1013 hPa
視程: 16.1km
高度2500ftの雲はほとんどない
高度7500ftの雲は散在している
高度10000ftの千切れ雲あり

METAR: TJSJ 251856Z 15008G14KT 10SM FEW025 SCT075 BKN100 27/22 A2990 RMK AO2 SLP123 T02720222 $

時間: 15:41 (19:41 UTC)

予報

当レポートは54分前の18:47(UTC)に作成
予報は25日の 19時(UTC)から 26日の 18時(UTC)まで有効
南/南東の風 12kt
視程: 10km
高度3000ftの雲はほとんどない
高度9000ftの雲は散在している
高度11000ftの千切れ雲あり
近辺でにわか雨
25日の 2300時(UTC)から
東/南東の風 5kt
視程: 10km
高度2500ftの雲は散在している
高度6000ftの千切れ雲あり
近辺でにわか雨
26日の 0300時(UTC)から
の風 3kt
視程: 10km
高度3000ftの雲はほとんどない
高度6000ftの雲は散在している
高度9000ftの雲は散在している
26日の 1500時(UTC)から
南西の風 4kt
視程: 10km
高度2500ftの雲は散在している
高度6000ftの千切れ雲あり
近辺でにわか雨

TAF: TJSJ 251847Z 2519/2618 15012KT P6SM VCSH FEW030 SCT090 BKN110 FM252300 11005KT P6SM VCSH SCT025 BKN060 FM260300 19003KT P6SM FEW030 SCT060 SCT090 FM261500 23004KT P6SM VCSH SCT025 BKN060

4,000以上の空港の気象観測と天気予報(METAR報とTAF報)

利用可能な観測所は地図上に黄色い丸と赤い丸で示す。

丸の上にカーソルを重ねると観測所名を参照できる。

次にクリックすると気象観測と天気予報を参照できる。

マップの切り替え:黒色「×」印の緑ボタンをクリックして拡大、「-」印の緑ボタンをクリックして縮小、緑色の三角印をクリックして隣りの地図に切り替え


METAR-TAF: